sensor_id;sensor_type;location;lat;lon;timestamp;pressure;altitude;pressure_sealevel;temperature;humidity
71795;BME280;59641;45.188;5.712;2023-02-10T00:01:32;101221.41;;;7.01;44.55
71795;BME280;59641;45.188;5.712;2023-02-10T00:03:58;101220.03;;;6.97;44.51
71795;BME280;59641;45.188;5.712;2023-02-10T00:06:26;101225.84;;;6.93;44.78
71795;BME280;59641;45.188;5.712;2023-02-10T00:08:58;101224.28;;;6.90;44.89
71795;BME280;59641;45.188;5.712;2023-02-10T00:11:24;101226.44;;;6.87;44.86
71795;BME280;59641;45.188;5.712;2023-02-10T00:14:10;101231.91;;;6.85;44.88
71795;BME280;59641;45.188;5.712;2023-02-10T00:16:36;101225.03;;;6.82;44.87
71795;BME280;59641;45.188;5.712;2023-02-10T00:19:02;101229.03;;;6.78;44.75
71795;BME280;59641;45.188;5.712;2023-02-10T00:21:28;101229.28;;;6.75;44.96
71795;BME280;59641;45.188;5.712;2023-02-10T00:23:53;101224.13;;;6.74;45.02
71795;BME280;59641;45.188;5.712;2023-02-10T00:26:18;101231.28;;;6.73;45.08
71795;BME280;59641;45.188;5.712;2023-02-10T00:28:44;101226.81;;;6.74;44.94
71795;BME280;59641;45.188;5.712;2023-02-10T00:31:15;101223.44;;;6.72;45.04
71795;BME280;59641;45.188;5.712;2023-02-10T00:33:44;101226.41;;;6.69;45.00
71795;BME280;59641;45.188;5.712;2023-02-10T00:36:11;101219.69;;;6.65;45.04
71795;BME280;59641;45.188;5.712;2023-02-10T00:38:38;101221.53;;;6.64;45.41
71795;BME280;59641;45.188;5.712;2023-02-10T00:41:05;101225.16;;;6.63;45.25
71795;BME280;59641;45.188;5.712;2023-02-10T00:43:31;101230.50;;;6.63;45.42
71795;BME280;59641;45.188;5.712;2023-02-10T00:45:56;101227.81;;;6.63;45.24
71795;BME280;59641;45.188;5.712;2023-02-10T00:48:22;101226.16;;;6.62;45.21
71795;BME280;59641;45.188;5.712;2023-02-10T00:50:47;101228.56;;;6.55;45.32
71795;BME280;59641;45.188;5.712;2023-02-10T00:53:13;101220.03;;;6.52;45.16
71795;BME280;59641;45.188;5.712;2023-02-10T00:55:38;101227.34;;;6.50;45.38
71795;BME280;59641;45.188;5.712;2023-02-10T00:58:03;101223.28;;;6.46;45.41
71795;BME280;59641;45.188;5.712;2023-02-10T01:00:29;101225.25;;;6.44;45.65
71795;BME280;59641;45.188;5.712;2023-02-10T01:02:55;101220.91;;;6.43;45.64
71795;BME280;59641;45.188;5.712;2023-02-10T01:05:20;101222.72;;;6.42;45.50
71795;BME280;59641;45.188;5.712;2023-02-10T01:07:46;101222.72;;;6.42;45.48
71795;BME280;59641;45.188;5.712;2023-02-10T01:10:11;101228.91;;;6.43;45.31
71795;BME280;59641;45.188;5.712;2023-02-10T01:12:36;101232.72;;;6.40;45.95
71795;BME280;59641;45.188;5.712;2023-02-10T01:15:02;101226.69;;;6.38;45.71
71795;BME280;59641;45.188;5.712;2023-02-10T01:17:27;101223.03;;;6.39;45.66
71795;BME280;59641;45.188;5.712;2023-02-10T01:19:53;101228.22;;;6.40;45.71
71795;BME280;59641;45.188;5.712;2023-02-10T01:22:18;101227.38;;;6.40;45.71
71795;BME280;59641;45.188;5.712;2023-02-10T01:24:43;101229.19;;;6.39;45.48
71795;BME280;59641;45.188;5.712;2023-02-10T01:27:09;101232.72;;;6.40;45.54
71795;BME280;59641;45.188;5.712;2023-02-10T01:29:34;101230.31;;;6.37;45.69
71795;BME280;59641;45.188;5.712;2023-02-10T01:31:59;101234.13;;;6.34;45.61
71795;BME280;59641;45.188;5.712;2023-02-10T01:34:25;101243.13;;;6.33;45.59
71795;BME280;59641;45.188;5.712;2023-02-10T01:36:51;101233.59;;;6.31;45.65
71795;BME280;59641;45.188;5.712;2023-02-10T01:39:17;101242.28;;;6.33;46.00
71795;BME280;59641;45.188;5.712;2023-02-10T01:41:42;101240.47;;;6.33;45.74
71795;BME280;59641;45.188;5.712;2023-02-10T01:47:00;101240.34;;;6.25;45.73
71795;BME280;59641;45.188;5.712;2023-02-10T01:49:29;101245.66;;;6.25;45.87
71795;BME280;59641;45.188;5.712;2023-02-10T01:52:08;101243.88;;;6.26;45.98
71795;BME280;59641;45.188;5.712;2023-02-10T01:54:40;101241.34;;;6.24;46.13
71795;BME280;59641;45.188;5.712;2023-02-10T01:57:06;101239.50;;;6.25;46.22
71795;BME280;59641;45.188;5.712;2023-02-10T01:59:35;101241.34;;;6.24;45.94
71795;BME280;59641;45.188;5.712;2023-02-10T02:02:02;101240.63;;;6.22;46.07
71795;BME280;59641;45.188;5.712;2023-02-10T02:04:49;101243.59;;;6.19;46.14
71795;BME280;59641;45.188;5.712;2023-02-10T02:07:15;101246.56;;;6.16;46.14
71795;BME280;59641;45.188;5.712;2023-02-10T02:09:42;101243.03;;;6.15;46.25
71795;BME280;59641;45.188;5.712;2023-02-10T02:15:40;101247.81;;;6.12;46.29
71795;BME280;59641;45.188;5.712;2023-02-10T02:31:58;101237.47;;;6.09;46.60
71795;BME280;59641;45.188;5.712;2023-02-10T02:39:33;101233.66;;;6.11;46.77
71795;BME280;59641;45.188;5.712;2023-02-10T02:44:45;101233.78;;;6.10;46.51
71795;BME280;59641;45.188;5.712;2023-02-10T02:47:36;101232.13;;;6.09;46.57
71795;BME280;59641;45.188;5.712;2023-02-10T02:50:24;101227.06;;;6.06;46.53
71795;BME280;59641;45.188;5.712;2023-02-10T02:53:26;101226.22;;;6.05;46.65
71795;BME280;59641;45.188;5.712;2023-02-10T03:01:13;101221.75;;;6.06;46.52
71795;BME280;59641;45.188;5.712;2023-02-10T03:03:39;101218.53;;;6.02;46.41
71795;BME280;59641;45.188;5.712;2023-02-10T03:06:05;101226.97;;;5.97;46.71
71795;BME280;59641;45.188;5.712;2023-02-10T03:08:33;101220.63;;;5.98;46.55
71795;BME280;59641;45.188;5.712;2023-02-10T03:10:59;101219.81;;;5.98;46.46
71795;BME280;59641;45.188;5.712;2023-02-10T03:13:25;101225.53;;;5.93;46.38
71795;BME280;59641;45.188;5.712;2023-02-10T03:15:50;101226.13;;;5.87;46.60
71795;BME280;59641;45.188;5.712;2023-02-10T03:18:16;101230.75;;;5.85;46.59
71795;BME280;59641;45.188;5.712;2023-02-10T03:20:42;101216.59;;;5.85;46.91
71795;BME280;59641;45.188;5.712;2023-02-10T03:23:08;101218.25;;;5.86;46.76
71795;BME280;59641;45.188;5.712;2023-02-10T03:25:34;101215.59;;;5.86;46.64
71795;BME280;59641;45.188;5.712;2023-02-10T03:27:59;101218.56;;;5.83;46.64
71795;BME280;59641;45.188;5.712;2023-02-10T03:30:25;101223.06;;;5.82;46.67
71795;BME280;59641;45.188;5.712;2023-02-10T03:32:50;101219.53;;;5.82;46.68
71795;BME280;59641;45.188;5.712;2023-02-10T03:35:18;101215.06;;;5.82;46.95
71795;BME280;59641;45.188;5.712;2023-02-10T03:37:44;101212.22;;;5.84;46.88
71795;BME280;59641;45.188;5.712;2023-02-10T03:40:09;101215.59;;;5.86;47.05
71795;BME280;59641;45.188;5.712;2023-02-10T03:42:35;101228.78;;;5.87;46.98
71795;BME280;59641;45.188;5.712;2023-02-10T03:45:00;101220.09;;;5.85;47.12
71795;BME280;59641;45.188;5.712;2023-02-10T03:47:26;101228.91;;;5.86;47.23
71795;BME280;59641;45.188;5.712;2023-02-10T03:49:51;101232.28;;;5.88;47.06
71795;BME280;59641;45.188;5.712;2023-02-10T03:52:16;101228.09;;;5.85;47.01
71795;BME280;59641;45.188;5.712;2023-02-10T03:54:42;101232.72;;;5.83;47.27
71795;BME280;59641;45.188;5.712;2023-02-10T03:57:07;101233.53;;;5.84;47.13
71795;BME280;59641;45.188;5.712;2023-02-10T03:59:33;101233.53;;;5.84;47.13
71795;BME280;59641;45.188;5.712;2023-02-10T04:01:58;101232.72;;;5.83;46.94
71795;BME280;59641;45.188;5.712;2023-02-10T04:04:24;101239.47;;;5.78;47.05
71795;BME280;59641;45.188;5.712;2023-02-10T04:06:49;101238.75;;;5.75;47.06
71795;BME280;59641;45.188;5.712;2023-02-10T04:09:15;101239.72;;;5.74;47.10
71795;BME280;59641;45.188;5.712;2023-02-10T04:11:40;101237.22;;;5.73;47.08
71795;BME280;59641;45.188;5.712;2023-02-10T04:14:06;101239.19;;;5.71;47.13
71795;BME280;59641;45.188;5.712;2023-02-10T04:16:31;101242.13;;;5.68;47.08
71795;BME280;59641;45.188;5.712;2023-02-10T04:18:57;101253.91;;;5.65;47.26
71795;BME280;59641;45.188;5.712;2023-02-10T04:21:22;101241.44;;;5.66;47.08
71795;BME280;59641;45.188;5.712;2023-02-10T04:23:49;101257.41;;;5.66;47.23
71795;BME280;59641;45.188;5.712;2023-02-10T04:26:15;101254.06;;;5.64;47.10
71795;BME280;59641;45.188;5.712;2023-02-10T04:28:40;101254.06;;;5.64;47.31
71795;BME280;59641;45.188;5.712;2023-02-10T04:31:06;101258.66;;;5.62;47.24
71795;BME280;59641;45.188;5.712;2023-02-10T04:33:31;101255.31;;;5.60;47.14
71795;BME280;59641;45.188;5.712;2023-02-10T04:35:57;101255.59;;;5.57;47.37
71795;BME280;59641;45.188;5.712;2023-02-10T04:38:23;101252.22;;;5.54;47.25
71795;BME280;59641;45.188;5.712;2023-02-10T04:40:49;101251.41;;;5.54;47.25
71795;BME280;59641;45.188;5.712;2023-02-10T04:43:15;101256.72;;;5.54;47.28
71795;BME280;59641;45.188;5.712;2023-02-10T04:45:40;101261.22;;;5.53;47.43
71795;BME280;59641;45.188;5.712;2023-02-10T04:48:06;101260.34;;;5.53;47.40
71795;BME280;59641;45.188;5.712;2023-02-10T04:50:32;101260.50;;;5.51;47.34
71795;BME280;59641;45.188;5.712;2023-02-10T04:52:57;101260.63;;;5.50;47.48
71795;BME280;59641;45.188;5.712;2023-02-10T04:55:23;101261.47;;;5.50;47.56
71795;BME280;59641;45.188;5.712;2023-02-10T04:57:48;101261.63;;;5.49;47.52
71795;BME280;59641;45.188;5.712;2023-02-10T05:00:14;101259.94;;;5.48;47.57
71795;BME280;59641;45.188;5.712;2023-02-10T05:02:40;101259.81;;;5.49;47.43
71795;BME280;59641;45.188;5.712;2023-02-10T05:05:06;101260.94;;;5.47;47.51
71795;BME280;59641;45.188;5.712;2023-02-10T05:07:31;101252.34;;;5.43;47.21
71795;BME280;59641;45.188;5.712;2023-02-10T05:09:56;101262.47;;;5.40;47.39
71795;BME280;59641;45.188;5.712;2023-02-10T05:12:22;101263.31;;;5.40;47.40
71795;BME280;59641;45.188;5.712;2023-02-10T05:14:47;101271.41;;;5.39;47.74
71795;BME280;59641;45.188;5.712;2023-02-10T05:17:12;101277.84;;;5.36;47.54
71795;BME280;59641;45.188;5.712;2023-02-10T05:19:38;101272.81;;;5.33;47.52
71795;BME280;59641;45.188;5.712;2023-02-10T05:22:04;101272.13;;;5.31;47.70
71795;BME280;59641;45.188;5.712;2023-02-10T05:24:29;101266.09;;;5.29;47.52
71795;BME280;59641;45.188;5.712;2023-02-10T05:26:54;101271.69;;;5.26;47.68
71795;BME280;59641;45.188;5.712;2023-02-10T05:29:20;101268.06;;;5.27;47.97
71795;BME280;59641;45.188;5.712;2023-02-10T05:31:45;101276.06;;;5.27;48.03
71795;BME280;59641;45.188;5.712;2023-02-10T05:34:10;101280.38;;;5.28;48.04
71795;BME280;59641;45.188;5.712;2023-02-10T05:36:36;101282.22;;;5.27;47.86
71795;BME280;59641;45.188;5.712;2023-02-10T05:39:01;101274.22;;;5.27;47.99
71795;BME280;59641;45.188;5.712;2023-02-10T05:41:45;101282.06;;;5.29;48.02
71795;BME280;59641;45.188;5.712;2023-02-10T05:44:11;101277.59;;;5.29;47.86
71795;BME280;59641;45.188;5.712;2023-02-10T05:46:36;101289.06;;;5.30;48.07
71795;BME280;59641;45.188;5.712;2023-02-10T05:49:01;101288.09;;;5.31;48.16
71795;BME280;59641;45.188;5.712;2023-02-10T05:51:27;101296.78;;;5.33;48.07
71795;BME280;59641;45.188;5.712;2023-02-10T05:53:52;101290.75;;;5.31;47.85
71795;BME280;59641;45.188;5.712;2023-02-10T05:56:19;101300.69;;;5.29;47.88
71795;BME280;59641;45.188;5.712;2023-02-10T05:58:44;101302.09;;;5.23;47.76
71795;BME280;59641;45.188;5.712;2023-02-10T06:01:10;101313.03;;;5.20;47.81
71795;BME280;59641;45.188;5.712;2023-02-10T06:03:36;101307.13;;;5.17;47.84
71795;BME280;59641;45.188;5.712;2023-02-10T06:06:02;101309.34;;;5.11;47.92
71795;BME280;59641;45.188;5.712;2023-02-10T06:08:27;101305.84;;;5.11;48.05
71795;BME280;59641;45.188;5.712;2023-02-10T06:10:53;101314.81;;;5.10;47.92
71795;BME280;59641;45.188;5.712;2023-02-10T06:13:18;101318.56;;;5.07;48.11
71795;BME280;59641;45.188;5.712;2023-02-10T06:15:44;101309.75;;;5.07;48.25
71795;BME280;59641;45.188;5.712;2023-02-10T06:18:09;101310.16;;;5.02;47.98
71795;BME280;59641;45.188;5.712;2023-02-10T06:20:35;101310.16;;;5.02;47.93
71795;BME280;59641;45.188;5.712;2023-02-10T06:23:00;101321.22;;;4.98;48.30
71795;BME280;59641;45.188;5.712;2023-02-10T06:25:26;101319.09;;;4.91;47.80
71795;BME280;59641;45.188;5.712;2023-02-10T06:27:51;101322.03;;;4.88;48.03
71795;BME280;59641;45.188;5.712;2023-02-10T06:30:16;101319.50;;;4.87;48.17
71795;BME280;59641;45.188;5.712;2023-02-10T06:32:42;101326.66;;;4.86;48.39
71795;BME280;59641;45.188;5.712;2023-02-10T06:35:07;101329.44;;;4.85;48.23
71795;BME280;59641;45.188;5.712;2023-02-10T06:37:33;101329.72;;;4.82;48.20
71795;BME280;59641;45.188;5.712;2023-02-10T06:39:58;101332.38;;;4.82;48.46
71795;BME280;59641;45.188;5.712;2023-02-10T06:42:24;101326.22;;;4.81;48.19
71795;BME280;59641;45.188;5.712;2023-02-10T06:44:49;101326.63;;;4.77;48.42
71795;BME280;59641;45.188;5.712;2023-02-10T06:47:15;101333.72;;;4.76;48.46
71795;BME280;59641;45.188;5.712;2023-02-10T06:49:40;101338.09;;;4.77;48.21
71795;BME280;59641;45.188;5.712;2023-02-10T06:52:05;101348.28;;;4.72;48.29
71795;BME280;59641;45.188;5.712;2023-02-10T06:54:31;101353.16;;;4.67;48.44
71795;BME280;59641;45.188;5.712;2023-02-10T06:56:56;101352.47;;;4.65;48.37
71795;BME280;59641;45.188;5.712;2023-02-10T06:59:21;101353.56;;;4.62;48.60
71795;BME280;59641;45.188;5.712;2023-02-10T07:01:47;101357.47;;;4.58;48.58
71795;BME280;59641;45.188;5.712;2023-02-10T07:04:12;101349.88;;;4.54;48.67
71795;BME280;59641;45.188;5.712;2023-02-10T07:06:38;101359.56;;;4.55;48.68
71795;BME280;59641;45.188;5.712;2023-02-10T07:09:04;101361.22;;;4.56;48.66
71795;BME280;59641;45.188;5.712;2023-02-10T07:11:30;101357.72;;;4.55;48.73
71795;BME280;59641;45.188;5.712;2023-02-10T07:13:56;101362.91;;;4.57;48.93
71795;BME280;59641;45.188;5.712;2023-02-10T07:16:22;101362.22;;;4.55;48.73
71795;BME280;59641;45.188;5.712;2023-02-10T07:18:47;101361.50;;;4.53;48.48
71795;BME280;59641;45.188;5.712;2023-02-10T07:21:13;101360.63;;;4.52;48.66
71795;BME280;59641;45.188;5.712;2023-02-10T07:23:38;101365.94;;;4.52;48.88
71795;BME280;59641;45.188;5.712;2023-02-10T07:26:04;101362.34;;;4.53;48.76
71795;BME280;59641;45.188;5.712;2023-02-10T07:28:30;101365.94;;;4.52;48.77
71795;BME280;59641;45.188;5.712;2023-02-10T07:30:55;101369.03;;;4.47;48.74
71795;BME280;59641;45.188;5.712;2023-02-10T07:33:21;101372.78;;;4.45;48.84
71795;BME280;59641;45.188;5.712;2023-02-10T07:35:46;101370.75;;;4.37;48.97
71795;BME280;59641;45.188;5.712;2023-02-10T07:38:12;101386.00;;;4.35;48.97
71795;BME280;59641;45.188;5.712;2023-02-10T07:40:37;101382.38;;;4.36;48.83
71795;BME280;59641;45.188;5.712;2023-02-10T07:43:02;101386.72;;;4.37;48.84
71795;BME280;59641;45.188;5.712;2023-02-10T07:45:28;101379.84;;;4.35;48.97
71795;BME280;59641;45.188;5.712;2023-02-10T07:47:57;101389.25;;;4.39;49.03
71795;BME280;59641;45.188;5.712;2023-02-10T07:50:22;101383.66;;;4.42;49.12
71795;BME280;59641;45.188;5.712;2023-02-10T07:52:48;101383.28;;;4.46;49.17
71795;BME280;59641;45.188;5.712;2023-02-10T07:55:13;101386.25;;;4.53;49.38
71795;BME280;59641;45.188;5.712;2023-02-10T07:57:39;101388.53;;;4.58;49.34
71795;BME280;59641;45.188;5.712;2023-02-10T08:00:06;101381.84;;;4.63;49.21
71795;BME280;59641;45.188;5.712;2023-02-10T08:02:32;101386.75;;;4.68;49.14
71795;BME280;59641;45.188;5.712;2023-02-10T08:04:57;101389.16;;;4.71;49.20
71795;BME280;59641;45.188;5.712;2023-02-10T08:07:24;101386.25;;;4.74;49.02
71795;BME280;59641;45.188;5.712;2023-02-10T08:09:49;101393.09;;;4.77;48.96
71795;BME280;59641;45.188;5.712;2023-02-10T08:12:15;101394.66;;;4.79;49.05
71795;BME280;59641;45.188;5.712;2023-02-10T08:14:40;101396.22;;;4.82;49.01
71795;BME280;59641;45.188;5.712;2023-02-10T08:17:05;101383.75;;;4.82;49.05
71795;BME280;59641;45.188;5.712;2023-02-10T08:19:31;101400.44;;;4.84;49.10
71795;BME280;59641;45.188;5.712;2023-02-10T08:21:57;101398.47;;;4.86;49.12
71795;BME280;59641;45.188;5.712;2023-02-10T08:24:22;101392.03;;;4.89;49.22
71795;BME280;59641;45.188;5.712;2023-02-10T08:26:47;101390.94;;;4.91;48.94
71795;BME280;59641;45.188;5.712;2023-02-10T08:29:13;101391.78;;;4.92;49.04
71795;BME280;59641;45.188;5.712;2023-02-10T08:31:38;101388.28;;;4.91;48.91
71795;BME280;59641;45.188;5.712;2023-02-10T08:34:04;101391.66;;;4.94;49.04
71795;BME280;59641;45.188;5.712;2023-02-10T08:36:29;101399.34;;;4.97;49.04
71795;BME280;59641;45.188;5.712;2023-02-10T08:38:56;101398.25;;;4.99;49.35
71795;BME280;59641;45.188;5.712;2023-02-10T08:41:22;101398.97;;;5.01;49.08
71795;BME280;59641;45.188;5.712;2023-02-10T08:43:47;101403.16;;;5.04;48.83
71795;BME280;59641;45.188;5.712;2023-02-10T08:46:13;101406.09;;;5.01;48.91
71795;BME280;59641;45.188;5.712;2023-02-10T08:48:39;101398.53;;;4.96;48.95
71795;BME280;59641;45.188;5.712;2023-02-10T08:51:07;101402.84;;;4.97;48.80
71795;BME280;59641;45.188;5.712;2023-02-10T08:53:33;101406.34;;;4.98;49.25
71795;BME280;59641;45.188;5.712;2023-02-10T08:56:00;101396.41;;;5.00;49.12
71795;BME280;59641;45.188;5.712;2023-02-10T08:58:27;101398.84;;;5.03;48.99
71795;BME280;59641;45.188;5.712;2023-02-10T09:00:53;101401.34;;;5.04;48.84
71795;BME280;59641;45.188;5.712;2023-02-10T09:03:18;101397.72;;;5.05;49.09
71795;BME280;59641;45.188;5.712;2023-02-10T09:05:44;101400.09;;;5.08;48.75
71795;BME280;59641;45.188;5.712;2023-02-10T09:08:14;101402.50;;;5.11;48.85
71795;BME280;59641;45.188;5.712;2023-02-10T09:10:41;101402.09;;;5.16;48.98
71795;BME280;59641;45.188;5.712;2023-02-10T09:13:06;101398.31;;;5.19;48.77
71795;BME280;59641;45.188;5.712;2023-02-10T09:15:36;101395.53;;;5.20;48.54
71795;BME280;59641;45.188;5.712;2023-02-10T09:18:01;101396.25;;;5.22;48.50
71795;BME280;59641;45.188;5.712;2023-02-10T09:20:26;101393.56;;;5.22;48.51
71795;BME280;59641;45.188;5.712;2023-02-10T09:22:52;101384.72;;;5.22;48.41
71795;BME280;59641;45.188;5.712;2023-02-10T09:25:17;101388.38;;;5.21;48.31
71795;BME280;59641;45.188;5.712;2023-02-10T09:27:42;101390.91;;;5.22;48.23
71795;BME280;59641;45.188;5.712;2023-02-10T09:30:08;101393.03;;;5.28;48.22
71795;BME280;59641;45.188;5.712;2023-02-10T09:32:34;101388.69;;;5.27;48.09
71795;BME280;59641;45.188;5.712;2023-02-10T09:34:59;101399.06;;;5.30;48.08
71795;BME280;59641;45.188;5.712;2023-02-10T09:37:24;101394.56;;;5.31;48.24
71795;BME280;59641;45.188;5.712;2023-02-10T09:39:50;101391.78;;;5.32;47.83
71795;BME280;59641;45.188;5.712;2023-02-10T09:45:03;101388.28;;;5.32;47.70
71795;BME280;59641;45.188;5.712;2023-02-10T09:47:56;101388.72;;;5.37;47.66
71795;BME280;59641;45.188;5.712;2023-02-10T09:50:42;101388.72;;;5.37;47.39
71795;BME280;59641;45.188;5.712;2023-02-10T09:53:18;101394.03;;;5.37;47.41
71795;BME280;59641;45.188;5.712;2023-02-10T09:55:50;101399.19;;;5.39;47.46
71795;BME280;59641;45.188;5.712;2023-02-10T09:58:31;101396.13;;;5.43;47.43
71795;BME280;59641;45.188;5.712;2023-02-10T10:04:17;101388.31;;;5.51;47.16
71795;BME280;59641;45.188;5.712;2023-02-10T10:07:18;101400.09;;;5.59;46.85
71795;BME280;59641;45.188;5.712;2023-02-10T10:09:58;101400.66;;;5.62;46.78
71795;BME280;59641;45.188;5.712;2023-02-10T10:12:26;101401.94;;;5.68;46.74
71795;BME280;59641;45.188;5.712;2023-02-10T10:14:53;101401.53;;;5.72;46.76
71795;BME280;59641;45.188;5.712;2023-02-10T10:17:47;101397.59;;;5.76;46.51
71795;BME280;59641;45.188;5.712;2023-02-10T10:20:47;101398.03;;;5.82;46.39
71795;BME280;59641;45.188;5.712;2023-02-10T10:30:49;101399.34;;;6.07;46.03
71795;BME280;59641;45.188;5.712;2023-02-10T10:33:51;101402.13;;;6.15;45.55
71795;BME280;59641;45.188;5.712;2023-02-10T10:36:22;101394.41;;;6.22;45.73
71795;BME280;59641;45.188;5.712;2023-02-10T10:38:53;101399.03;;;6.29;45.27
71795;BME280;59641;45.188;5.712;2023-02-10T10:41:23;101393.97;;;6.36;45.21
71795;BME280;59641;45.188;5.712;2023-02-10T10:43:52;101395.78;;;6.45;45.07
71795;BME280;59641;45.188;5.712;2023-02-10T10:47:27;101400.00;;;6.48;44.40
71795;BME280;59641;45.188;5.712;2023-02-10T10:49:22;101395.63;;;6.47;44.18
71795;BME280;59641;45.188;5.712;2023-02-10T10:51:47;101391.00;;;6.49;44.49
71795;BME280;59641;45.188;5.712;2023-02-10T10:54:19;101392.84;;;6.48;44.07
71795;BME280;59641;45.188;5.712;2023-02-10T10:56:49;101381.88;;;6.51;44.37
71795;BME280;59641;45.188;5.712;2023-02-10T10:59:35;101384.81;;;6.58;44.21
71795;BME280;59641;45.188;5.712;2023-02-10T11:02:14;101381.56;;;6.64;43.85
71795;BME280;59641;45.188;5.712;2023-02-10T11:04:40;101379.00;;;6.72;44.23
71795;BME280;59641;45.188;5.712;2023-02-10T11:07:12;101384.44;;;6.80;44.29
71795;BME280;59641;45.188;5.712;2023-02-10T11:09:49;101388.53;;;6.85;43.94
71795;BME280;59641;45.188;5.712;2023-02-10T11:12:26;101381.75;;;6.90;43.65
71795;BME280;59641;45.188;5.712;2023-02-10T11:14:53;101382.00;;;6.97;43.65
71795;BME280;59641;45.188;5.712;2023-02-10T11:17:35;101376.41;;;7.00;43.56
71795;BME280;59641;45.188;5.712;2023-02-10T11:20:20;101381.25;;;7.04;43.49
71795;BME280;59641;45.188;5.712;2023-02-10T11:22:59;101378.31;;;7.08;42.77
71795;BME280;59641;45.188;5.712;2023-02-10T11:25:32;101382.22;;;7.13;42.83
71795;BME280;59641;45.188;5.712;2023-02-10T11:28:00;101371.94;;;7.18;43.24
71795;BME280;59641;45.188;5.712;2023-02-10T11:30:27;101377.97;;;7.20;42.57
71795;BME280;59641;45.188;5.712;2023-02-10T11:32:53;101369.81;;;7.22;42.52
71795;BME280;59641;45.188;5.712;2023-02-10T11:35:19;101374.03;;;7.24;42.35
71795;BME280;59641;45.188;5.712;2023-02-10T11:37:52;101370.91;;;7.29;42.03
71795;BME280;59641;45.188;5.712;2023-02-10T11:40:30;101370.03;;;7.29;42.06
71795;BME280;59641;45.188;5.712;2023-02-10T11:42:59;101361.06;;;7.30;41.99
71795;BME280;59641;45.188;5.712;2023-02-10T11:45:27;101358.78;;;7.35;41.75
71795;BME280;59641;45.188;5.712;2023-02-10T11:48:20;101361.59;;;7.33;40.88
71795;BME280;59641;45.188;5.712;2023-02-10T11:50:46;101349.38;;;7.31;40.53
71795;BME280;59641;45.188;5.712;2023-02-10T11:53:24;101344.47;;;7.26;41.08
71795;BME280;59641;45.188;5.712;2023-02-10T11:56:01;101338.00;;;7.29;41.27
71795;BME280;59641;45.188;5.712;2023-02-10T11:58:45;101327.72;;;7.34;40.88
71795;BME280;59641;45.188;5.712;2023-02-10T12:10:50;101306.69;;;7.49;41.04
71795;BME280;59641;45.188;5.712;2023-02-10T12:26:14;101293.53;;;7.73;40.47
71795;BME280;59641;45.188;5.712;2023-02-10T12:36:54;101284.31;;;7.94;40.27
71795;BME280;59641;45.188;5.712;2023-02-10T12:39:44;101282.19;;;7.97;40.23
71795;BME280;59641;45.188;5.712;2023-02-10T12:42:40;101277.22;;;8.02;40.45
71795;BME280;59641;45.188;5.712;2023-02-10T12:45:32;101284.31;;;8.11;40.70
71795;BME280;59641;45.188;5.712;2023-02-10T12:48:56;101276.66;;;8.17;40.66
71795;BME280;59641;45.188;5.712;2023-02-10T12:53:40;101272.50;;;8.22;40.38
71795;BME280;59641;45.188;5.712;2023-02-10T12:56:15;101266.69;;;8.27;40.38
71795;BME280;59641;45.188;5.712;2023-02-10T12:58:46;101267.22;;;8.30;40.50
71795;BME280;59641;45.188;5.712;2023-02-10T13:01:25;101272.91;;;8.36;40.66
71795;BME280;59641;45.188;5.712;2023-02-10T13:04:01;101265.41;;;8.39;40.31
71795;BME280;59641;45.188;5.712;2023-02-10T13:11:48;101270.16;;;8.45;39.98
71795;BME280;59641;45.188;5.712;2023-02-10T13:14:25;101262.50;;;8.50;40.29
71795;BME280;59641;45.188;5.712;2023-02-10T13:16:57;101261.34;;;8.53;40.12
71795;BME280;59641;45.188;5.712;2023-02-10T13:21:57;101270.41;;;8.60;40.07
71795;BME280;59641;45.188;5.712;2023-02-10T13:24:32;101261.22;;;8.63;39.88
71795;BME280;59641;45.188;5.712;2023-02-10T13:30:13;101262.91;;;8.72;39.99
71795;BME280;59641;45.188;5.712;2023-02-10T13:33:11;101262.59;;;8.75;39.75
71795;BME280;59641;45.188;5.712;2023-02-10T13:35:42;101259.63;;;8.78;39.61
71795;BME280;59641;45.188;5.712;2023-02-10T13:38:13;101263.63;;;8.82;39.42
71795;BME280;59641;45.188;5.712;2023-02-10T13:43:46;101251.59;;;8.86;39.50
71795;BME280;59641;45.188;5.712;2023-02-10T13:46:25;101251.25;;;8.89;39.75
71795;BME280;59641;45.188;5.712;2023-02-10T13:48:53;101244.09;;;8.90;39.45
71795;BME280;59641;45.188;5.712;2023-02-10T13:51:35;101241.91;;;8.93;39.60
71795;BME280;59641;45.188;5.712;2023-02-10T13:54:03;101240.06;;;8.94;39.59
71795;BME280;59641;45.188;5.712;2023-02-10T13:56:31;101239.72;;;8.97;39.62
71795;BME280;59641;45.188;5.712;2023-02-10T14:04:30;101229.41;;;9.02;39.71
71795;BME280;59641;45.188;5.712;2023-02-10T14:07:17;101239.78;;;9.05;39.98
71795;BME280;59641;45.188;5.712;2023-02-10T14:09:42;101238.75;;;9.06;40.22
71795;BME280;59641;45.188;5.712;2023-02-10T14:12:26;101236.75;;;9.08;40.12
71795;BME280;59641;45.188;5.712;2023-02-10T14:14:53;101230.22;;;9.11;40.32
71795;BME280;59641;45.188;5.712;2023-02-10T14:17:23;101230.91;;;9.13;40.29
71795;BME280;59641;45.188;5.712;2023-02-10T14:19:55;101232.59;;;9.14;40.24
71795;BME280;59641;45.188;5.712;2023-02-10T14:22:22;101235.94;;;9.16;40.46
71795;BME280;59641;45.188;5.712;2023-02-10T14:24:49;101231.09;;;9.20;40.55
71795;BME280;59641;45.188;5.712;2023-02-10T14:27:16;101226.41;;;9.22;40.55
71795;BME280;59641;45.188;5.712;2023-02-10T14:32:43;101231.28;;;9.26;40.39
71795;BME280;59641;45.188;5.712;2023-02-10T14:35:21;101229.09;;;9.30;40.43
71795;BME280;59641;45.188;5.712;2023-02-10T14:37:55;101225.25;;;9.32;40.44
71795;BME280;59641;45.188;5.712;2023-02-10T14:40:24;101222.56;;;9.32;40.70
71795;BME280;59641;45.188;5.712;2023-02-10T14:42:50;101236.78;;;9.33;40.53
71795;BME280;59641;45.188;5.712;2023-02-10T14:45:21;101225.09;;;9.34;40.37
71795;BME280;59641;45.188;5.712;2023-02-10T14:47:48;101222.22;;;9.35;40.37
71795;BME280;59641;45.188;5.712;2023-02-10T14:50:23;101223.91;;;9.36;40.38
71795;BME280;59641;45.188;5.712;2023-02-10T14:52:49;101227.28;;;9.38;40.42